createdAt,value
2018-06-15T00:02:26.499Z,66.90
2018-06-15T00:04:54.393Z,66.70
2018-06-15T00:07:22.028Z,65.90
2018-06-15T00:09:49.577Z,65.60
2018-06-15T00:12:17.158Z,65.80
2018-06-15T00:14:44.782Z,65.90
2018-06-15T00:17:12.344Z,65.60
2018-06-15T00:19:39.937Z,65.20
2018-06-15T00:22:07.493Z,65.30
2018-06-15T00:24:35.166Z,65.70
2018-06-15T00:27:02.742Z,65.40
2018-06-15T00:29:30.364Z,65.90
2018-06-15T00:31:57.950Z,66.40
2018-06-15T00:34:25.576Z,66.10
2018-06-15T00:36:53.182Z,66.70
2018-06-15T00:39:20.769Z,66.60
2018-06-15T00:44:42.631Z,66.70
2018-06-15T00:47:10.284Z,66.80
2018-06-15T00:49:37.919Z,68.00
2018-06-15T00:52:05.623Z,67.20
2018-06-15T00:54:33.213Z,66.70
2018-06-15T00:57:12.246Z,67.20
2018-06-15T00:59:51.792Z,67.20
2018-06-15T01:02:19.381Z,67.10
2018-06-15T01:04:46.892Z,67.30
2018-06-15T01:07:14.509Z,67.20
2018-06-15T01:09:42.070Z,67.20
2018-06-15T01:12:09.694Z,67.10
2018-06-15T01:14:37.180Z,67.10
2018-06-15T01:17:04.944Z,66.90
2018-06-15T01:19:32.664Z,67.40
2018-06-15T01:22:00.311Z,67.90
2018-06-15T01:24:27.969Z,68.00
2018-06-15T01:26:55.611Z,67.80
2018-06-15T01:29:23.347Z,67.90
2018-06-15T01:31:50.893Z,68.20
2018-06-15T01:34:18.860Z,68.10
2018-06-15T01:36:46.985Z,68.10
2018-06-15T01:39:14.776Z,68.30
2018-06-15T01:41:42.348Z,67.80
2018-06-15T01:44:09.905Z,68.10
2018-06-15T01:46:37.517Z,68.50
2018-06-15T01:49:05.139Z,68.50
2018-06-15T01:51:33.080Z,68.80
2018-06-15T01:54:00.964Z,68.30
2018-06-15T01:56:28.983Z,68.00
2018-06-15T01:58:56.732Z,68.90
2018-06-15T02:01:24.809Z,69.40
2018-06-15T02:03:52.598Z,69.60
2018-06-15T02:06:20.292Z,69.40
2018-06-15T02:08:48.084Z,69.40
2018-06-15T02:11:15.856Z,69.90
2018-06-15T02:13:43.655Z,69.70
2018-06-15T02:16:11.443Z,70.10
2018-06-15T02:18:39.274Z,70.00
2018-06-15T02:21:07.012Z,69.50
2018-06-15T02:23:34.763Z,69.10
2018-06-15T02:26:02.552Z,69.30
2018-06-15T02:28:30.294Z,70.50
2018-06-15T02:30:58.032Z,70.20
2018-06-15T02:33:25.841Z,70.10
2018-06-15T02:35:53.566Z,70.30
2018-06-15T02:38:21.457Z,70.40
2018-06-15T02:40:49.480Z,70.10
2018-06-15T02:43:17.518Z,70.30
2018-06-15T02:45:45.300Z,70.50
2018-06-15T02:48:13.001Z,70.70
2018-06-15T02:50:40.737Z,70.50
2018-06-15T02:53:30.833Z,70.30
2018-06-15T02:55:58.597Z,70.10
2018-06-15T02:58:26.331Z,70.50
2018-06-15T03:00:54.137Z,70.40
2018-06-15T03:03:21.793Z,70.80
2018-06-15T03:05:49.481Z,70.40
2018-06-15T03:08:17.083Z,70.50
2018-06-15T03:10:44.733Z,70.30
2018-06-15T03:13:12.373Z,70.70
2018-06-15T03:15:40.057Z,70.60
2018-06-15T03:18:07.791Z,71.00
2018-06-15T03:20:35.461Z,71.00
2018-06-15T03:23:03.041Z,71.10
2018-06-15T03:25:31.436Z,71.40
2018-06-15T03:27:59.197Z,70.90
2018-06-15T03:30:26.917Z,71.00
2018-06-15T03:32:56.751Z,71.40
2018-06-15T03:35:24.756Z,71.70
2018-06-15T03:37:52.600Z,71.00
2018-06-15T03:40:20.645Z,70.60
2018-06-15T03:42:48.333Z,70.50
2018-06-15T03:45:16.055Z,70.80
2018-06-15T03:47:43.871Z,71.20
2018-06-15T03:50:11.591Z,71.20
2018-06-15T03:52:42.557Z,71.30
2018-06-15T03:55:10.329Z,71.20
2018-06-15T03:57:37.986Z,71.50
2018-06-15T04:00:05.627Z,71.60
2018-06-15T04:02:33.668Z,71.80
2018-06-15T04:10:47.768Z,72.20
2018-06-15T04:13:34.069Z,72.20
2018-06-15T04:16:24.794Z,71.40
2018-06-15T04:18:54.570Z,72.20
2018-06-15T04:21:23.202Z,72.00
2018-06-15T04:23:51.146Z,72.50
2018-06-15T04:26:57.782Z,71.70
2018-06-15T04:32:36.276Z,72.20
2018-06-15T04:38:39.188Z,73.20
2018-06-15T04:41:47.790Z,73.80
2018-06-15T05:06:59.807Z,74.50
2018-06-15T05:09:27.906Z,74.10
2018-06-15T05:12:01.134Z,73.50
2018-06-15T05:20:34.744Z,73.20
2018-06-15T05:23:03.746Z,73.30
2018-06-15T05:25:31.285Z,74.70
2018-06-15T05:27:58.833Z,74.80
2018-06-15T05:30:26.357Z,74.10
2018-06-15T05:32:53.888Z,74.20
2018-06-15T05:35:21.528Z,74.30
2018-06-15T05:37:48.909Z,74.70
2018-06-15T05:40:16.490Z,74.70
2018-06-15T05:42:44.166Z,74.40
2018-06-15T05:45:11.708Z,75.20
2018-06-15T05:47:39.311Z,74.70
2018-06-15T05:50:06.940Z,73.90
2018-06-15T05:52:34.592Z,73.30
2018-06-15T05:58:18.577Z,72.70
2018-06-15T06:00:46.114Z,72.50
2018-06-15T06:06:00.107Z,72.70
2018-06-15T06:11:21.048Z,72.30
2018-06-15T06:14:07.298Z,72.50
2018-06-15T06:16:35.192Z,72.90
2018-06-15T06:19:07.824Z,72.70
2018-06-15T06:21:35.816Z,72.30
2018-06-15T06:24:03.571Z,72.20
2018-06-15T06:26:31.294Z,71.70
2018-06-15T06:28:58.840Z,72.20
2018-06-15T06:31:26.399Z,71.90
2018-06-15T06:33:53.936Z,72.00
2018-06-15T06:36:21.510Z,71.50
2018-06-15T06:39:02.290Z,71.00
2018-06-15T06:41:34.410Z,70.90
2018-06-15T06:44:08.663Z,70.40
2018-06-15T06:46:42.336Z,71.30
2018-06-15T06:49:16.214Z,71.70
2018-06-15T06:51:46.050Z,70.40
2018-06-15T06:54:13.641Z,70.70
2018-06-15T06:56:41.387Z,70.90
2018-06-15T06:59:09.022Z,70.90
2018-06-15T07:01:36.609Z,72.60
2018-06-15T07:04:04.234Z,73.10
2018-06-15T07:06:31.879Z,73.90
2018-06-15T07:08:59.609Z,72.00
2018-06-15T07:11:28.394Z,71.60
2018-06-15T07:13:56.097Z,71.00
2018-06-15T07:16:23.800Z,71.50
2018-06-15T07:18:51.465Z,71.20
2018-06-15T07:21:19.214Z,70.80
2018-06-15T07:23:46.838Z,70.20
2018-06-15T07:26:14.613Z,70.80
2018-06-15T07:28:42.513Z,70.90
2018-06-15T07:31:10.309Z,72.20
2018-06-15T07:33:40.525Z,70.10
2018-06-15T07:36:08.535Z,70.40
2018-06-15T07:38:36.566Z,70.90
2018-06-15T07:41:04.413Z,71.40
2018-06-15T07:43:32.122Z,71.00
2018-06-15T07:45:59.978Z,70.90
2018-06-15T07:48:27.778Z,70.10
2018-06-15T07:51:14.840Z,70.80
2018-06-15T07:53:42.531Z,69.20
2018-06-15T07:56:10.353Z,68.10
2018-06-15T07:58:38.212Z,70.60
2018-06-15T08:01:05.952Z,69.60
2018-06-15T08:03:33.728Z,69.30
2018-06-15T08:06:01.339Z,69.10
2018-06-15T08:08:29.137Z,68.70
2018-06-15T08:10:56.966Z,68.70
2018-06-15T08:13:24.780Z,68.30
2018-06-15T08:15:52.590Z,67.60
2018-06-15T08:18:20.368Z,68.20
2018-06-15T08:20:48.138Z,66.90
2018-06-15T08:23:20.164Z,66.80
2018-06-15T08:25:47.914Z,67.10
2018-06-15T08:28:15.571Z,67.20
2018-06-15T08:30:43.267Z,65.50
2018-06-15T08:33:11.052Z,66.20
2018-06-15T08:35:38.861Z,63.00
2018-06-15T08:38:06.546Z,63.40
2018-06-15T08:40:34.220Z,62.90
2018-06-15T08:43:01.909Z,63.20
2018-06-15T08:45:29.640Z,64.40
2018-06-15T08:47:57.332Z,65.00
2018-06-15T08:50:24.986Z,64.60
2018-06-15T08:52:52.691Z,63.70
2018-06-15T08:56:41.717Z,62.20
2018-06-15T08:59:09.422Z,62.40
2018-06-15T09:04:34.712Z,62.60
2018-06-15T09:07:03.501Z,60.70
2018-06-15T09:09:31.317Z,60.80
2018-06-15T09:11:59.188Z,62.00
2018-06-15T09:14:37.111Z,61.20
2018-06-15T09:20:24.562Z,61.90
2018-06-15T09:22:52.358Z,62.80
2018-06-15T09:25:20.076Z,61.60
2018-06-15T09:27:47.938Z,61.80
2018-06-15T09:30:15.916Z,61.30
2018-06-15T09:32:43.842Z,60.60
2018-06-15T09:35:11.508Z,62.50
2018-06-15T09:37:43.447Z,63.00
2018-06-15T09:40:11.304Z,62.10
2018-06-15T09:45:41.344Z,60.90
2018-06-15T09:48:09.027Z,59.70
2018-06-15T09:50:36.636Z,59.00
2018-06-15T09:53:04.460Z,58.80
2018-06-15T09:55:32.462Z,58.80
2018-06-15T09:58:17.415Z,58.50
2018-06-15T10:00:52.489Z,56.90
2018-06-15T10:03:20.891Z,57.40
2018-06-15T10:05:48.804Z,58.40
2018-06-15T10:08:26.689Z,59.30
2018-06-15T10:14:15.446Z,60.60
2018-06-15T10:16:48.753Z,58.50
2018-06-15T10:22:23.546Z,56.60
2018-06-15T10:24:51.141Z,55.80
2018-06-15T10:27:19.065Z,56.10
2018-06-15T10:29:46.765Z,56.70
2018-06-15T10:32:14.444Z,57.20
2018-06-15T10:34:42.270Z,57.20
2018-06-15T10:37:09.957Z,55.50
2018-06-15T10:39:37.647Z,55.10
2018-06-15T10:42:05.300Z,56.10
2018-06-15T10:44:34.890Z,56.40
2018-06-15T10:47:07.623Z,56.50
2018-06-15T10:49:35.588Z,55.20
2018-06-15T10:52:11.483Z,55.50
2018-06-15T10:54:39.112Z,55.10
2018-06-15T10:57:06.721Z,53.30
2018-06-15T10:59:34.353Z,51.80
2018-06-15T11:02:01.955Z,52.90
2018-06-15T11:04:29.691Z,53.00
2018-06-15T11:09:54.465Z,53.50
2018-06-15T11:12:22.103Z,52.50
2018-06-15T11:14:49.868Z,51.20
2018-06-15T11:17:17.793Z,51.30
2018-06-15T11:19:45.518Z,53.70
2018-06-15T11:22:15.643Z,51.90
2018-06-15T11:24:43.389Z,52.80
2018-06-15T11:27:11.219Z,54.20
2018-06-15T11:29:39.004Z,53.10
2018-06-15T11:32:07.561Z,53.00
2018-06-15T11:34:35.459Z,52.90
2018-06-15T11:37:03.389Z,51.60
2018-06-15T11:39:31.149Z,52.20
2018-06-15T11:42:08.602Z,52.10
2018-06-15T11:44:36.529Z,51.20
2018-06-15T11:47:04.293Z,51.50
2018-06-15T11:49:32.052Z,51.90
2018-06-15T11:51:59.916Z,52.70
2018-06-15T11:54:27.718Z,51.30
2018-06-15T11:56:55.544Z,52.10
2018-06-15T11:59:23.626Z,54.70
2018-06-15T12:01:52.541Z,52.40
2018-06-15T12:04:20.390Z,51.50
2018-06-15T12:06:49.632Z,51.70
2018-06-15T12:09:17.998Z,51.20
2018-06-15T12:11:45.837Z,52.50
2018-06-15T12:14:13.693Z,50.80
2018-06-15T12:16:41.516Z,51.30
2018-06-15T12:19:12.905Z,52.10
2018-06-15T12:21:40.719Z,53.60
2018-06-15T12:24:08.497Z,52.70
2018-06-15T12:26:36.470Z,50.80
2018-06-15T12:29:04.435Z,52.60
2018-06-15T12:31:32.279Z,54.80
2018-06-15T12:34:01.255Z,53.80
2018-06-15T12:36:29.260Z,49.40
2018-06-15T12:38:56.989Z,50.60
2018-06-15T12:41:24.785Z,52.80
2018-06-15T12:43:52.752Z,52.90
2018-06-15T12:46:20.600Z,52.70
2018-06-15T12:48:48.428Z,52.30
2018-06-15T12:51:21.196Z,51.70
2018-06-15T12:53:48.855Z,51.30
2018-06-15T12:56:16.401Z,51.30
2018-06-15T12:58:44.165Z,50.50
2018-06-15T13:01:12.019Z,51.00
2018-06-15T13:03:39.605Z,49.80
2018-06-15T13:06:07.231Z,49.90
2018-06-15T13:08:35.100Z,51.50
2018-06-15T13:11:02.717Z,52.10
2018-06-15T13:13:30.434Z,52.70
2018-06-15T13:15:58.093Z,51.80
2018-06-15T13:18:25.809Z,52.40
2018-06-15T13:20:53.497Z,51.90
2018-06-15T13:23:21.343Z,50.80
2018-06-15T13:25:57.996Z,53.60
2018-06-15T13:28:35.383Z,53.10
2018-06-15T13:40:55.127Z,49.90
2018-06-15T13:43:40.779Z,50.80
2018-06-15T13:46:15.267Z,50.50
2018-06-15T13:48:46.145Z,51.40
2018-06-15T14:00:19.743Z,50.30
2018-06-15T14:02:47.768Z,49.50
2018-06-15T14:05:16.234Z,50.30
2018-06-15T14:07:45.010Z,53.20
2018-06-15T14:10:13.291Z,51.10
2018-06-15T14:12:41.368Z,49.50
2018-06-15T14:15:09.266Z,50.30
2018-06-15T14:17:36.987Z,48.90
2018-06-15T14:20:11.518Z,49.50
2018-06-15T14:22:39.378Z,51.20
2018-06-15T14:25:07.576Z,52.40
2018-06-15T14:27:35.184Z,51.50
2018-06-15T14:30:04.521Z,50.40
2018-06-15T14:32:32.257Z,50.10
2018-06-15T14:34:59.922Z,50.00
2018-06-15T14:37:27.644Z,50.20
2018-06-15T14:39:55.332Z,49.80
2018-06-15T14:42:23.744Z,50.70
2018-06-15T14:44:52.358Z,50.70
2018-06-15T14:47:20.151Z,50.20
2018-06-15T14:49:49.404Z,50.50
2018-06-15T14:52:36.399Z,47.60
2018-06-15T14:55:21.843Z,49.10
2018-06-15T14:57:53.097Z,49.30
2018-06-15T15:02:59.409Z,48.40
2018-06-15T15:05:27.407Z,49.20
2018-06-15T15:08:00.222Z,47.50
2018-06-15T15:10:29.277Z,49.40
2018-06-15T15:13:07.843Z,50.20
2018-06-15T15:18:15.950Z,50.90
2018-06-15T15:20:48.743Z,50.20
2018-06-15T15:23:16.466Z,51.40
2018-06-15T15:25:44.047Z,49.20
2018-06-15T15:28:11.676Z,50.90
2018-06-15T15:30:57.854Z,49.40
2018-06-15T15:33:25.460Z,50.50
2018-06-15T15:35:53.134Z,51.90
2018-06-15T15:38:20.807Z,49.70
2018-06-15T15:40:48.487Z,49.00
2018-06-15T15:43:24.364Z,49.10
2018-06-15T15:45:51.981Z,49.80
2018-06-15T15:48:19.565Z,50.40
2018-06-15T15:51:02.805Z,50.40
2018-06-15T15:58:01.644Z,49.20
2018-06-15T16:00:29.142Z,48.50
2018-06-15T16:02:56.754Z,49.10
2018-06-15T16:05:24.355Z,49.20
2018-06-15T16:08:07.623Z,49.10
2018-06-15T16:10:41.511Z,49.70
2018-06-15T16:16:00.112Z,47.90
2018-06-15T16:18:27.673Z,48.50
2018-06-15T16:20:55.321Z,48.60
2018-06-15T16:23:23.012Z,48.20
2018-06-15T16:25:50.548Z,49.90
2018-06-15T16:28:18.105Z,49.20
2018-06-15T16:30:45.626Z,49.30
2018-06-15T16:33:13.166Z,48.80
2018-06-15T16:35:40.881Z,49.70
2018-06-15T16:38:08.528Z,48.20
2018-06-15T16:40:37.680Z,49.50
2018-06-15T16:43:05.615Z,49.30
2018-06-15T16:45:33.494Z,48.60
2018-06-15T16:48:01.219Z,49.30
2018-06-15T16:50:29.101Z,49.20
2018-06-15T16:52:56.760Z,49.10
2018-06-15T16:55:24.372Z,49.40
2018-06-15T16:57:52.050Z,50.30
2018-06-15T17:00:19.744Z,49.60
2018-06-15T17:02:47.454Z,50.50
2018-06-15T17:05:15.031Z,49.80
2018-06-15T17:13:28.460Z,50.20
2018-06-15T17:15:56.163Z,50.00
2018-06-15T17:18:23.778Z,50.90
2018-06-15T17:20:51.463Z,51.70
2018-06-15T17:23:19.177Z,50.50
2018-06-15T17:26:03.520Z,51.40
2018-06-15T17:28:31.145Z,49.80
2018-06-15T17:30:58.839Z,51.20
2018-06-15T17:33:26.403Z,50.70
2018-06-15T17:35:54.186Z,51.70
2018-06-15T17:38:22.171Z,51.10
2018-06-15T17:40:49.756Z,51.30
2018-06-15T17:43:17.354Z,51.80
2018-06-15T17:45:44.966Z,51.70
2018-06-15T17:48:12.763Z,52.10
2018-06-15T17:50:40.419Z,52.70
2018-06-15T17:53:08.130Z,51.80
2018-06-15T17:55:35.965Z,51.70
2018-06-15T17:58:03.845Z,52.20
2018-06-15T18:00:31.465Z,51.90
2018-06-15T18:03:11.395Z,52.30
2018-06-15T18:05:39.704Z,52.10
2018-06-15T18:08:07.390Z,52.30
2018-06-15T18:10:35.131Z,52.10
2018-06-15T18:13:02.653Z,52.80
2018-06-15T18:15:30.270Z,53.30
2018-06-15T18:17:57.796Z,53.50
2018-06-15T18:20:25.438Z,52.30
2018-06-15T18:25:46.815Z,53.20
2018-06-15T18:28:14.450Z,52.60
2018-06-15T18:30:42.025Z,52.50
2018-06-15T18:33:09.548Z,52.40
2018-06-15T18:35:37.176Z,52.00
2018-06-15T18:41:03.760Z,52.70
2018-06-15T18:43:31.299Z,52.70
2018-06-15T18:45:58.823Z,53.10
2018-06-15T18:48:26.365Z,53.80
2018-06-15T18:50:53.922Z,53.90
2018-06-15T18:53:21.395Z,53.90
2018-06-15T18:55:48.980Z,54.40
2018-06-15T18:58:16.507Z,54.40
2018-06-15T19:00:44.153Z,55.10
2018-06-15T19:03:14.092Z,55.00
2018-06-15T19:05:42.502Z,55.20
2018-06-15T19:10:37.852Z,55.60
2018-06-15T19:13:05.812Z,55.50
2018-06-15T19:15:34.368Z,55.90
2018-06-15T19:18:04.167Z,55.90
2018-06-15T19:20:32.296Z,56.10
2018-06-15T19:22:59.943Z,56.20
2018-06-15T19:25:27.724Z,56.60
2018-06-15T19:27:55.421Z,56.90
2018-06-15T19:30:23.374Z,57.00
2018-06-15T19:32:52.573Z,56.80
2018-06-15T19:35:20.387Z,56.90
2018-06-15T19:37:48.033Z,57.00
2018-06-15T19:40:15.664Z,57.10
2018-06-15T19:42:43.440Z,57.30
2018-06-15T19:45:12.569Z,57.30
2018-06-15T19:47:40.177Z,57.40
2018-06-15T19:50:07.750Z,56.90
2018-06-15T19:52:36.223Z,57.20
2018-06-15T19:55:03.810Z,57.70
2018-06-15T19:57:31.428Z,58.50
2018-06-15T20:00:02.728Z,57.90
2018-06-15T20:02:30.573Z,58.10
2018-06-15T20:04:58.709Z,58.50
2018-06-15T20:07:26.397Z,58.30
2018-06-15T20:09:54.066Z,58.50
2018-06-15T20:12:21.804Z,58.60
2018-06-15T20:14:50.236Z,58.80
2018-06-15T20:17:19.605Z,59.30
2018-06-15T20:19:47.582Z,58.90
2018-06-15T20:22:15.834Z,58.90
2018-06-15T20:27:11.233Z,59.30
2018-06-15T20:29:39.363Z,59.50
2018-06-15T20:32:07.049Z,59.50
2018-06-15T20:34:34.704Z,59.90
2018-06-15T20:37:02.369Z,59.40
2018-06-15T20:39:30.003Z,59.50
2018-06-15T20:41:57.563Z,59.60
2018-06-15T20:44:26.214Z,59.50
2018-06-15T20:46:54.135Z,60.10
2018-06-15T20:49:21.785Z,60.60
2018-06-15T20:51:49.298Z,60.50
2018-06-15T20:54:16.827Z,60.80
2018-06-15T20:56:44.472Z,61.10
2018-06-15T20:59:12.072Z,62.00
2018-06-15T21:01:39.694Z,61.00
2018-06-15T21:04:07.262Z,61.10
2018-06-15T21:06:34.898Z,61.30
2018-06-15T21:12:02.518Z,61.40
2018-06-15T21:14:35.910Z,61.60
2018-06-15T21:17:03.630Z,61.90
2018-06-15T21:19:31.267Z,62.10
2018-06-15T21:22:06.776Z,62.10
2018-06-15T21:24:48.631Z,62.00
2018-06-15T21:27:16.306Z,62.40
2018-06-15T21:29:43.900Z,62.60
2018-06-15T21:32:11.538Z,62.60
2018-06-15T21:34:40.213Z,62.70
2018-06-15T21:37:07.749Z,62.80
2018-06-15T21:39:36.380Z,63.00
2018-06-15T21:42:03.859Z,63.30
2018-06-15T21:47:31.199Z,63.40
2018-06-15T21:52:59.467Z,63.90
2018-06-15T21:55:27.151Z,64.20
2018-06-15T21:57:54.870Z,64.10
2018-06-15T22:00:23.932Z,64.20
2018-06-15T22:02:51.578Z,64.30
2018-06-15T22:08:19.443Z,64.30
2018-06-15T22:10:57.280Z,64.30
2018-06-15T22:13:25.039Z,64.50
2018-06-15T22:15:52.655Z,64.30
2018-06-15T22:18:20.298Z,64.60
2018-06-15T22:20:47.961Z,64.80
2018-06-15T22:23:16.539Z,64.80
2018-06-15T22:25:44.128Z,64.80
2018-06-15T22:28:22.368Z,64.90
2018-06-15T22:30:49.871Z,65.20
2018-06-15T22:33:17.401Z,65.10
2018-06-15T22:35:44.965Z,65.50
2018-06-15T22:38:12.781Z,65.70
2018-06-15T22:40:40.374Z,65.60
2018-06-15T22:43:07.984Z,65.80
2018-06-15T22:45:36.620Z,65.80
2018-06-15T22:51:17.037Z,66.20
2018-06-15T22:53:44.630Z,65.80
2018-06-15T22:56:12.547Z,65.90
2018-06-15T22:58:59.176Z,65.90
2018-06-15T23:01:26.955Z,66.20
2018-06-15T23:03:54.763Z,65.80
2018-06-15T23:06:22.507Z,66.30
2018-06-15T23:08:50.045Z,66.00
2018-06-15T23:11:17.584Z,66.20
2018-06-15T23:13:45.213Z,66.20
2018-06-15T23:16:12.754Z,66.00
2018-06-15T23:18:47.536Z,66.40
2018-06-15T23:21:15.162Z,66.60
2018-06-15T23:23:42.903Z,66.70
2018-06-15T23:26:10.792Z,66.60
2018-06-15T23:28:38.756Z,66.30
2018-06-15T23:31:07.648Z,66.00
2018-06-15T23:33:35.390Z,66.60
2018-06-15T23:36:03.072Z,66.00
2018-06-15T23:38:31.676Z,66.20
2018-06-15T23:40:59.404Z,66.30
2018-06-15T23:43:27.165Z,66.30
2018-06-15T23:45:54.830Z,66.40
2018-06-15T23:48:22.491Z,66.70
2018-06-15T23:50:50.117Z,66.80
2018-06-15T23:53:17.752Z,66.90
2018-06-15T23:55:45.371Z,66.60
2018-06-15T23:58:13.073Z,66.40
